Time;durP1;ratioP1;P1;durP2;ratioP2;P2;SDS_P1;SDS_P2;PMS_P1;PMS_P2;Temp;Humidity;BMP_temperature;BMP_pressure;BME280_temperature;BME280_humidity;BME280_pressure;Samples;Min_cycle;Max_cycle;Signal;HPM_P1;HPM_P2
2020/12/30 00:01:23;;;;;;;8.05;1.60;;;6.00;99.90;;;;;;6161672;23;20433;-92
2020/12/30 00:03:53;;;;;;;7.53;1.30;;;6.00;99.90;;;;;;6161664;23;20021;-90
2020/12/30 00:06:20;;;;;;;9.20;1.38;;;6.00;99.90;;;;;;6161939;23;20017;-90
2020/12/30 00:08:48;;;;;;;8.65;1.88;;;5.90;99.90;;;;;;6161546;23;20028;-92
2020/12/30 00:11:17;;;;;;;11.02;1.33;;;5.90;99.90;;;;;;6161148;23;20392;-92
2020/12/30 00:13:46;;;;;;;11.30;1.40;;;5.90;99.90;;;;;;6161903;23;20388;-92
2020/12/30 00:16:14;;;;;;;7.57;1.30;;;5.90;99.90;;;;;;6161603;23;20024;-93
2020/12/30 00:18:42;;;;;;;7.13;1.20;;;5.90;99.90;;;;;;6161664;23;20021;-93
2020/12/30 00:21:10;;;;;;;6.70;1.08;;;5.90;99.90;;;;;;6161352;23;20099;-93
2020/12/30 00:23:40;;;;;;;8.18;1.50;;;5.90;99.90;;;;;;6162278;23;20101;-92
2020/12/30 00:26:09;;;;;;;9.80;1.50;;;5.90;99.90;;;;;;6161559;23;20025;-92
2020/12/30 00:28:37;;;;;;;;;;;5.90;99.90;;;;;;6162061;23;20068;-90
2020/12/30 00:31:07;;;;;;;11.93;1.25;;;5.80;99.90;;;;;;6161236;23;19916;-92
2020/12/30 00:33:36;;;;;;;6.00;1.23;;;5.80;99.90;;;;;;6161691;23;20021;-92
2020/12/30 00:36:07;;;;;;;10.93;1.60;;;5.70;99.90;;;;;;6160346;23;20020;-92
2020/12/30 00:38:38;;;;;;;8.90;1.63;;;5.70;99.90;;;;;;6161680;23;20017;-92
2020/12/30 00:41:05;;;;;;;11.27;1.80;;;5.70;99.90;;;;;;6186078;23;20080;-91
2020/12/30 00:43:33;;;;;;;9.60;1.35;;;5.70;99.90;;;;;;6161641;23;20021;-92
2020/12/30 00:46:00;;;;;;;9.55;1.50;;;5.70;99.90;;;;;;6161400;23;20024;-92
2020/12/30 00:48:28;;;;;;;10.95;1.30;;;5.70;99.90;;;;;;6161668;23;20047;-92
2020/12/30 00:50:59;;;;;;;7.28;1.38;;;5.60;99.90;;;;;;6162012;23;20048;-91
2020/12/30 00:53:26;;;;;;;9.60;1.50;;;5.60;99.90;;;;;;6161938;23;20043;-92
2020/12/30 00:55:54;;;;;;;8.85;2.17;;;5.60;99.90;;;;;;6161823;23;20017;-91
2020/12/30 00:58:22;;;;;;;8.75;1.30;;;5.50;99.90;;;;;;6161528;23;20017;-92
2020/12/30 01:00:51;;;;;;;10.37;1.70;;;5.50;99.90;;;;;;6161024;23;20016;-92
2020/12/30 01:03:21;;;;;;;16.75;2.53;;;5.50;99.90;;;;;;6160786;23;20028;-92
2020/12/30 01:05:49;;;;;;;5.47;1.35;;;5.50;99.90;;;;;;6186638;23;20021;-92
2020/12/30 01:08:19;;;;;;;9.00;1.70;;;5.50;99.90;;;;;;6163661;23;20017;-91
2020/12/30 01:10:46;;;;;;;7.75;1.40;;;5.60;99.90;;;;;;6163382;23;20017;-92
2020/12/30 01:13:14;;;;;;;8.45;1.33;;;5.60;99.90;;;;;;6162689;23;20044;-92
2020/12/30 01:15:46;;;;;;;6.03;1.38;;;5.70;99.90;;;;;;6162718;23;20038;-92
2020/12/30 01:18:14;;;;;;;8.45;1.40;;;5.70;99.90;;;;;;6163760;23;20017;-93
2020/12/30 01:20:43;;;;;;;7.32;1.00;;;5.80;99.90;;;;;;6163258;23;20017;-92
2020/12/30 01:23:11;;;;;;;5.03;1.00;;;5.80;99.90;;;;;;6162698;23;20306;-93
2020/12/30 01:25:38;;;;;;;6.05;1.67;;;5.80;99.90;;;;;;6163863;23;20036;-92
2020/12/30 01:28:06;;;;;;;6.60;0.90;;;5.80;99.90;;;;;;6162126;23;20023;-92
2020/12/30 01:30:34;;;;;;;2.78;0.90;;;5.80;99.90;;;;;;6162905;23;20072;-92
2020/12/30 01:33:02;;;;;;;5.22;0.90;;;5.70;99.90;;;;;;6162882;23;20020;-92
2020/12/30 01:35:30;;;;;;;6.78;0.90;;;5.70;99.90;;;;;;6162203;23;20017;-92
2020/12/30 01:37:59;;;;;;;6.75;1.33;;;5.70;99.90;;;;;;6163243;23;20028;-92
2020/12/30 01:40:27;;;;;;;7.57;1.15;;;5.60;99.90;;;;;;6162847;23;20021;-92
2020/12/30 01:42:55;;;;;;;4.45;0.98;;;5.60;99.90;;;;;;6163597;23;20021;-92
2020/12/30 01:45:23;;;;;;;6.35;1.40;;;5.60;99.90;;;;;;6162234;23;20013;-92
2020/12/30 01:47:51;;;;;;;6.55;1.35;;;5.60;99.90;;;;;;6162952;23;20562;-92
2020/12/30 01:50:22;;;;;;;8.75;1.70;;;5.60;99.90;;;;;;6163054;23;20067;-92
2020/12/30 01:52:53;;;;;;;3.85;1.00;;;5.60;99.90;;;;;;6163418;23;20036;-92
2020/12/30 01:55:25;;;;;;;4.47;0.95;;;5.60;99.90;;;;;;6188216;23;20071;-90
2020/12/30 01:57:52;;;;;;;7.22;1.10;;;5.70;99.90;;;;;;6163419;23;20013;-92
2020/12/30 02:00:20;;;;;;;6.30;1.35;;;5.70;99.90;;;;;;6162817;23;20298;-92
2020/12/30 02:02:54;;;;;;;5.43;1.00;;;5.70;99.90;;;;;;6162662;23;20017;-92
2020/12/30 02:05:23;;;;;;;6.10;1.30;;;5.70;99.90;;;;;;6162606;23;20092;-92
2020/12/30 02:07:53;;;;;;;5.53;1.33;;;5.70;99.90;;;;;;6163679;23;20073;-92
2020/12/30 02:10:23;;;;;;;8.93;1.63;;;5.70;99.90;;;;;;6163329;23;20398;-91
2020/12/30 02:12:51;;;;;;;7.65;1.00;;;5.70;99.90;;;;;;6162668;23;20433;-92
2020/12/30 02:15:38;;;;;;;6.68;1.50;;;5.70;99.90;;;;;;6162551;23;20021;-92
2020/12/30 02:18:08;;;;;;;5.13;0.80;;;5.70;99.90;;;;;;6162444;23;20044;-93
2020/12/30 02:20:36;;;;;;;4.18;0.80;;;5.60;99.90;;;;;;6163119;23;20289;-92
2020/12/30 02:23:09;;;;;;;7.50;1.10;;;5.60;99.90;;;;;;6162598;23;20017;-92
2020/12/30 02:25:37;;;;;;;8.45;1.38;;;5.60;99.90;;;;;;6162895;23;20036;-92
2020/12/30 02:28:05;;;;;;;5.55;0.98;;;5.50;99.90;;;;;;6162089;23;20032;-92
2020/12/30 02:30:33;;;;;;;4.25;1.02;;;5.50;99.90;;;;;;6161814;23;20087;-91
2020/12/30 02:33:01;;;;;;;5.60;1.00;;;5.50;99.90;;;;;;6161637;23;20068;-91
2020/12/30 02:35:29;;;;;;;5.78;1.15;;;5.40;99.90;;;;;;6162186;23;20027;-92
2020/12/30 02:37:58;;;;;;;8.98;1.20;;;5.40;99.90;;;;;;6163015;23;20021;-92
2020/12/30 02:40:26;;;;;;;7.10;0.90;;;5.40;99.90;;;;;;6162539;23;20369;-92
2020/12/30 02:42:53;;;;;;;5.53;0.70;;;5.40;99.90;;;;;;6162546;23;20049;-92
2020/12/30 02:45:22;;;;;;;3.88;0.63;;;5.40;99.90;;;;;;6162012;23;20092;-92
2020/12/30 02:47:52;;;;;;;6.63;1.15;;;5.40;99.90;;;;;;6162213;23;20023;-91
2020/12/30 02:50:21;;;;;;;4.97;0.82;;;5.40;99.90;;;;;;6162907;23;20017;-92
2020/12/30 02:52:49;;;;;;;7.88;1.30;;;5.50;99.90;;;;;;6150624;23;20017;-91
2020/12/30 02:55:18;;;;;;;5.47;1.00;;;5.50;99.90;;;;;;6162707;23;20021;-91
2020/12/30 02:57:46;;;;;;;5.47;1.13;;;5.50;99.90;;;;;;6162166;23;20017;-92
2020/12/30 03:00:15;;;;;;;8.63;1.50;;;5.60;99.90;;;;;;6162156;23;20086;-92
2020/12/30 03:02:42;;;;;;;5.97;0.90;;;5.60;99.90;;;;;;6162225;23;20087;-92
2020/12/30 03:05:10;;;;;;;8.20;1.42;;;5.60;99.90;;;;;;6162082;23;20021;-91
2020/12/30 03:07:38;;;;;;;9.05;1.67;;;5.60;99.90;;;;;;6163098;23;20049;-92
2020/12/30 03:10:08;;;;;;;6.80;1.10;;;5.60;99.90;;;;;;6162160;23;20024;-92
2020/12/30 03:12:39;;;;;;;6.82;1.77;;;5.60;99.90;;;;;;6162083;23;20365;-92
2020/12/30 03:15:06;;;;;;;4.80;0.95;;;5.70;99.90;;;;;;6161746;23;20420;-92
2020/12/30 03:17:35;;;;;;;7.50;0.93;;;5.70;99.90;;;;;;6162885;23;20021;-91
2020/12/30 03:20:03;;;;;;;8.35;0.93;;;5.70;99.90;;;;;;6162610;23;20068;-92
2020/12/30 03:22:32;;;;;;;3.50;0.70;;;5.70;99.90;;;;;;6162291;23;20071;-91
2020/12/30 03:25:00;;;;;;;11.80;0.90;;;5.80;99.90;;;;;;6162269;23;20047;-91
2020/12/30 03:27:27;;;;;;;6.03;0.98;;;5.80;99.90;;;;;;6161416;23;20021;-92
2020/12/30 03:29:54;;;;;;;7.45;0.85;;;5.90;99.90;;;;;;6161307;23;20063;-92
2020/12/30 03:32:23;;;;;;;3.90;0.73;;;5.90;99.90;;;;;;6162277;23;20020;-92
2020/12/30 03:34:51;;;;;;;3.92;0.77;;;5.90;99.90;;;;;;6161858;23;20029;-91
2020/12/30 03:37:19;;;;;;;6.38;1.10;;;6.00;99.90;;;;;;6162210;23;20039;-92
2020/12/30 03:39:49;;;;;;;3.83;0.93;;;6.00;99.90;;;;;;6149520;23;20021;-91
2020/12/30 03:42:17;;;;;;;8.02;1.38;;;6.00;99.90;;;;;;6161930;23;20027;-92
2020/12/30 03:44:45;;;;;;;6.90;1.13;;;6.00;99.90;;;;;;6161802;23;20479;-92
2020/12/30 03:47:19;;;;;;;7.22;1.10;;;6.00;99.90;;;;;;6163472;23;20017;-92
2020/12/30 03:49:48;;;;;;;6.18;0.85;;;6.00;99.90;;;;;;6161873;23;20013;-92
2020/12/30 03:52:17;;;;;;;5.70;1.20;;;6.00;99.90;;;;;;6161823;23;20492;-92
2020/12/30 03:54:44;;;;;;;4.43;0.88;;;6.00;99.90;;;;;;6162044;23;20022;-92
2020/12/30 03:57:12;;;;;;;7.97;0.88;;;6.00;99.90;;;;;;6161792;23;20013;-91
2020/12/30 03:59:39;;;;;;;5.25;0.60;;;6.00;99.90;;;;;;6161609;23;20447;-92
2020/12/30 04:02:06;;;;;;;8.35;1.10;;;6.00;99.90;;;;;;6161726;23;20328;-92
2020/12/30 04:04:34;;;;;;;10.50;1.85;;;6.00;99.90;;;;;;6161362;23;20055;-92
2020/12/30 04:07:01;;;;;;;4.03;0.98;;;5.90;99.90;;;;;;6161767;23;20017;-92
2020/12/30 04:09:30;;;;;;;6.05;1.00;;;5.90;99.90;;;;;;6161260;23;20028;-91
2020/12/30 04:11:57;;;;;;;9.75;1.40;;;5.90;99.90;;;;;;6161595;23;20017;-91
2020/12/30 04:14:25;;;;;;;4.88;1.10;;;5.90;99.90;;;;;;6161814;23;20048;-92
2020/12/30 04:16:56;;;;;;;11.73;1.20;;;5.80;99.90;;;;;;6162559;23;20028;-92
2020/12/30 04:19:25;;;;;;;13.18;1.67;;;5.80;99.90;;;;;;6161981;23;20523;-92
2020/12/30 04:21:53;;;;;;;9.55;1.33;;;5.70;99.90;;;;;;6161496;23;20429;-92
2020/12/30 04:24:22;;;;;;;10.00;1.30;;;5.70;99.90;;;;;;6161315;23;20453;-92
2020/12/30 04:26:50;;;;;;;10.02;1.75;;;5.60;99.90;;;;;;6161362;23;20068;-92
2020/12/30 04:29:17;;;;;;;6.60;1.10;;;5.60;99.90;;;;;;6161736;23;20021;-92
2020/12/30 04:31:45;;;;;;;7.68;1.25;;;5.60;99.90;;;;;;6161944;23;20013;-92
2020/12/30 04:34:12;;;;;;;12.47;1.23;;;5.50;99.90;;;;;;6161485;23;20433;-92
2020/12/30 04:36:41;;;;;;;8.23;1.37;;;5.50;99.90;;;;;;6160372;23;20330;-92
2020/12/30 04:39:09;;;;;;;7.00;1.60;;;5.50;99.90;;;;;;6161151;23;20271;-92
2020/12/30 04:41:38;;;;;;;6.95;1.27;;;5.40;99.90;;;;;;6161461;23;20084;-91
2020/12/30 04:44:07;;;;;;;;;;;5.40;99.90;;;;;;6161909;23;20325;-91
2020/12/30 04:46:37;;;;;;;8.63;1.27;;;5.40;99.90;;;;;;6161463;23;19917;-92
2020/12/30 04:49:04;;;;;;;6.85;1.17;;;5.30;99.90;;;;;;6161114;23;20048;-91
2020/12/30 04:51:34;;;;;;;6.50;1.38;;;5.30;99.90;;;;;;6161523;23;20088;-92
2020/12/30 04:54:03;;;;;;;7.25;1.50;;;5.30;99.90;;;;;;6161182;23;20024;-92
2020/12/30 04:57:02;;;;;;;7.65;1.10;;;5.20;99.90;;;;;;6161159;23;20029;-92
2020/12/30 04:59:40;;;;;;;13.93;1.63;;;5.20;99.90;;;;;;6161418;23;20361;-92
2020/12/30 05:02:09;;;;;;;9.82;1.42;;;5.10;99.90;;;;;;6161547;23;20492;-92
2020/12/30 05:04:40;;;;;;;7.22;1.88;;;5.10;99.90;;;;;;6161708;23;20021;-92
2020/12/30 05:07:13;;;;;;;12.77;1.90;;;5.00;99.90;;;;;;6162156;23;20052;-92
2020/12/30 05:09:43;;;;;;;6.68;1.23;;;5.00;99.90;;;;;;6161346;23;20036;-92
2020/12/30 05:12:20;;;;;;;11.10;1.33;;;4.90;99.90;;;;;;6161436;23;20017;-91
2020/12/30 05:14:49;;;;;;;7.70;1.45;;;4.90;99.90;;;;;;6162109;23;20028;-92
2020/12/30 05:17:18;;;;;;;9.95;1.60;;;4.80;99.90;;;;;;6161078;23;20019;-92
2020/12/30 05:19:46;;;;;;;9.65;2.65;;;4.80;99.90;;;;;;6162390;23;20017;-92
2020/12/30 05:22:20;;;;;;;14.45;4.15;;;4.80;99.90;;;;;;6185635;23;20293;-92
2020/12/30 05:24:50;;;;;;;11.50;1.90;;;4.70;99.90;;;;;;6161479;23;20032;-92
2020/12/30 05:27:19;;;;;;;;;;;4.70;99.90;;;;;;6161275;23;20036;-91
2020/12/30 05:29:51;;;;;;;14.13;1.58;;;4.70;99.90;;;;;;6161156;23;19920;-92
2020/12/30 05:32:21;;;;;;;11.18;2.05;;;4.60;99.90;;;;;;6161007;23;20023;-92
2020/12/30 05:34:49;;;;;;;13.85;2.88;;;4.70;99.90;;;;;;6160748;23;20448;-92
2020/12/30 05:37:17;;;;;;;15.73;2.13;;;4.70;99.90;;;;;;6160854;23;20024;-92
2020/12/30 05:39:47;;;;;;;14.90;2.65;;;4.70;99.90;;;;;;6161198;23;20021;-92
2020/12/30 05:42:20;;;;;;;15.57;2.13;;;4.80;99.90;;;;;;6161269;23;20017;-91
2020/12/30 05:44:49;;;;;;;25.58;2.83;;;4.80;99.90;;;;;;6161162;23;20064;-92
2020/12/30 05:47:21;;;;;;;12.68;2.15;;;4.80;99.90;;;;;;6161453;23;20013;-92
2020/12/30 05:49:50;;;;;;;13.40;2.20;;;4.80;99.90;;;;;;6161398;23;20024;-92
2020/12/30 05:52:23;;;;;;;16.40;2.47;;;4.70;99.90;;;;;;6161825;23;20023;-92
2020/12/30 05:55:02;;;;;;;8.07;2.15;;;4.70;99.90;;;;;;6163952;23;20020;-92
2020/12/30 05:57:30;;;;;;;11.45;1.88;;;4.70;99.90;;;;;;6164173;23;20060;-90
2020/12/30 06:00:08;;;;;;;10.95;2.00;;;4.70;99.90;;;;;;6164112;23;20092;-92
2020/12/30 06:02:42;;;;;;;13.38;2.05;;;4.70;99.90;;;;;;6163859;23;20030;-92
2020/12/30 06:05:19;;;;;;;10.88;1.83;;;4.70;99.90;;;;;;6164013;23;20074;-92
2020/12/30 06:07:48;;;;;;;14.30;2.35;;;4.60;99.90;;;;;;6164030;23;20021;-92
2020/12/30 06:10:16;;;;;;;;;;;4.60;99.90;;;;;;6163616;23;20067;-89
2020/12/30 06:12:51;;;;;;;16.27;2.63;;;4.60;99.90;;;;;;6162605;23;19927;-92
2020/12/30 06:15:26;;;;;;;16.17;2.67;;;4.60;99.90;;;;;;6163205;23;20044;-92
2020/12/30 06:18:00;;;;;;;15.00;2.30;;;4.50;99.90;;;;;;6163473;23;20020;-92
2020/12/30 06:20:36;;;;;;;11.88;2.05;;;4.50;99.90;;;;;;6188117;23;20259;-92
2020/12/30 06:23:10;;;;;;;13.63;2.30;;;4.50;99.90;;;;;;6163478;23;20043;-92
2020/12/30 06:25:40;;;;;;;10.70;2.22;;;4.50;99.90;;;;;;6162945;23;20028;-92
2020/12/30 06:28:21;;;;;;;9.63;2.10;;;4.50;99.90;;;;;;6163371;23;20398;-92
2020/12/30 06:30:51;;;;;;;13.15;1.63;;;4.50;99.90;;;;;;6151459;23;20021;-92
2020/12/30 06:33:23;;;;;;;12.50;1.98;;;4.50;99.90;;;;;;6162216;23;20028;-92
2020/12/30 06:35:55;;;;;;;17.27;2.22;;;4.40;99.90;;;;;;6162592;23;20068;-92
2020/12/30 06:38:25;;;;;;;16.52;2.30;;;4.40;99.90;;;;;;6163406;23;20032;-92
2020/12/30 06:41:00;;;;;;;13.63;2.38;;;4.40;99.90;;;;;;6162624;23;20044;-92
2020/12/30 06:43:49;;;;;;;12.00;1.48;;;4.40;99.90;;;;;;6163030;23;20377;-92
2020/12/30 06:46:23;;;;;;;12.60;2.40;;;4.40;99.90;;;;;;6187446;23;20075;-92
2020/12/30 06:49:01;;;;;;;12.20;2.58;;;4.40;99.90;;;;;;6162374;23;20017;-92
2020/12/30 06:51:37;;;;;;;9.43;1.85;;;4.40;99.90;;;;;;6162158;23;20021;-92
2020/12/30 06:54:06;;;;;;;6.68;1.30;;;4.40;99.90;;;;;;6161403;23;20045;-92
2020/12/30 06:56:41;;;;;;;10.30;1.53;;;4.50;99.90;;;;;;6162671;23;20017;-92
2020/12/30 06:59:29;;;;;;;6.38;1.13;;;4.70;99.90;;;;;;6162517;23;20021;-92
2020/12/30 07:02:00;;;;;;;12.23;1.73;;;4.90;99.90;;;;;;6186781;23;20479;-92
2020/12/30 07:04:29;;;;;;;5.82;1.10;;;5.20;99.90;;;;;;6161818;23;20048;-92
2020/12/30 07:06:58;;;;;;;7.90;1.00;;;5.30;99.90;;;;;;6161907;23;20017;-92
2020/12/30 07:09:35;;;;;;;7.70;1.42;;;5.50;99.90;;;;;;6161025;23;20112;-92
2020/12/30 07:12:06;;;;;;;4.45;1.15;;;5.50;99.90;;;;;;6162945;23;20024;-92
2020/12/30 07:14:37;;;;;;;8.75;1.30;;;5.60;99.90;;;;;;6163025;23;20044;-91
2020/12/30 07:17:07;;;;;;;9.05;1.40;;;5.70;99.90;;;;;;6162738;23;20013;-92
2020/12/30 07:19:40;;;;;;;10.20;1.42;;;5.70;99.90;;;;;;6163128;23;20294;-92
2020/12/30 07:22:13;;;;;;;9.82;2.17;;;5.70;99.90;;;;;;6162031;23;20035;-91
2020/12/30 07:24:57;;;;;;;8.23;1.48;;;5.70;99.90;;;;;;6161310;23;20457;-91
2020/12/30 07:27:29;;;;;;;13.70;2.38;;;5.70;99.90;;;;;;6162689;23;20017;-91
2020/12/30 07:29:58;;;;;;;7.00;1.40;;;5.70;99.90;;;;;;6162625;23;20370;-91
2020/12/30 07:32:26;;;;;;;14.60;1.77;;;5.70;99.90;;;;;;6162262;23;20044;-92
2020/12/30 07:34:55;;;;;;;7.85;1.85;;;5.70;99.90;;;;;;6162919;23;20775;-91
2020/12/30 07:37:24;;;;;;;9.43;1.55;;;5.70;99.90;;;;;;6162125;23;20071;-92
2020/12/30 07:39:52;;;;;;;10.00;1.50;;;5.70;99.90;;;;;;6162579;23;20041;-91
2020/12/30 07:42:23;;;;;;;11.38;1.58;;;5.60;99.90;;;;;;6162110;23;20115;-92
2020/12/30 07:44:52;;;;;;;7.97;1.60;;;5.60;99.90;;;;;;6162721;23;20024;-92
2020/12/30 07:47:22;;;;;;;11.52;2.75;;;5.60;99.90;;;;;;6162019;23;20020;-92
2020/12/30 07:49:50;;;;;;;11.52;1.55;;;5.60;99.90;;;;;;6138353;23;20028;-92
2020/12/30 07:52:20;;;;;;;9.57;1.65;;;5.60;99.90;;;;;;6160777;23;20021;-92
2020/12/30 07:54:49;;;;;;;9.52;1.60;;;5.60;99.90;;;;;;6162331;23;20021;-91
2020/12/30 07:57:18;;;;;;;9.80;1.45;;;5.60;99.90;;;;;;6162284;23;20080;-92
2020/12/30 07:59:50;;;;;;;18.38;1.75;;;5.60;99.90;;;;;;6161941;23;20020;-92
2020/12/30 08:02:19;;;;;;;10.60;1.50;;;5.60;99.90;;;;;;6161779;23;20048;-92
2020/12/30 08:04:58;;;;;;;18.35;2.15;;;5.50;99.90;;;;;;6162723;23;20476;-92
2020/12/30 08:07:31;;;;;;;10.52;1.75;;;5.50;99.90;;;;;;6162411;23;20369;-91
2020/12/30 08:10:03;;;;;;;6.53;1.60;;;5.50;99.90;;;;;;6161058;23;20449;-91
2020/12/30 08:12:31;;;;;;;11.90;1.50;;;5.50;99.90;;;;;;6159747;23;20029;-91
2020/12/30 08:14:59;;;;;;;13.45;2.00;;;5.50;99.90;;;;;;6159237;23;20021;-91
2020/12/30 08:17:27;;;;;;;9.52;1.40;;;5.50;99.90;;;;;;6158862;23;20373;-92
2020/12/30 08:19:55;;;;;;;15.45;2.05;;;5.50;99.90;;;;;;6161646;23;20017;-91
2020/12/30 08:22:30;;;;;;;11.07;1.52;;;5.40;99.90;;;;;;6157820;23;20021;-91
2020/12/30 08:24:58;;;;;;;8.18;1.45;;;5.40;99.90;;;;;;6158251;23;20032;-91
2020/12/30 08:27:30;;;;;;;10.93;1.85;;;5.40;99.90;;;;;;6158379;23;20017;-91
2020/12/30 08:30:00;;;;;;;10.55;1.90;;;5.40;99.90;;;;;;6156215;23;20071;-91
2020/12/30 08:32:35;;;;;;;15.45;2.10;;;5.40;99.90;;;;;;6157236;23;20017;-91
2020/12/30 08:35:08;;;;;;;10.20;1.45;;;5.40;99.90;;;;;;6181850;23;20039;-91
2020/12/30 08:37:58;;;;;;;9.38;1.52;;;5.40;99.90;;;;;;6190823;23;20075;-89
2020/12/30 08:40:30;;;;;;;11.40;2.38;;;5.40;99.90;;;;;;6162400;23;20355;-91
2020/12/30 08:43:22;;;;;;;12.43;1.80;;;5.50;99.90;;;;;;6158427;23;20013;-92
2020/12/30 08:45:49;;;;;;;13.90;1.60;;;5.50;99.90;;;;;;6183378;23;20083;-91
2020/12/30 08:48:21;;;;;;;7.63;1.38;;;5.60;99.90;;;;;;6183300;23;20013;-91
2020/12/30 08:50:52;;;;;;;12.73;1.25;;;5.60;99.90;;;;;;6158716;23;20048;-92
2020/12/30 08:53:36;;;;;;;13.88;1.77;;;5.70;99.90;;;;;;6159368;23;20067;-92
2020/12/30 08:56:07;;;;;;;7.50;1.40;;;5.70;99.90;;;;;;6158789;23;20487;-91
2020/12/30 08:58:37;;;;;;;10.18;1.38;;;5.80;99.90;;;;;;6159117;23;20100;-91
2020/12/30 09:01:36;;;;;;;9.90;1.67;;;5.80;99.90;;;;;;6158938;23;20546;-92
2020/12/30 09:04:12;;;;;;;14.50;1.92;;;5.80;99.90;;;;;;6135816;23;20040;-91
2020/12/30 09:06:40;;;;;;;12.48;2.28;;;5.90;99.90;;;;;;6158339;23;20464;-92
2020/12/30 09:09:10;;;;;;;8.52;1.20;;;5.90;99.90;;;;;;6158829;23;20033;-92
2020/12/30 09:11:44;;;;;;;11.43;1.83;;;5.90;99.90;;;;;;6158558;23;20068;-92
2020/12/30 09:14:14;;;;;;;7.35;1.33;;;5.90;99.90;;;;;;6158462;23;20017;-91
2020/12/30 09:16:53;;;;;;;13.00;1.30;;;6.00;99.90;;;;;;6158594;23;20096;-91
2020/12/30 09:19:22;;;;;;;7.63;1.75;;;6.00;99.90;;;;;;6158457;23;20087;-92
2020/12/30 09:21:50;;;;;;;8.23;1.80;;;6.10;99.90;;;;;;6157104;23;20017;-92
2020/12/30 09:24:23;;;;;;;7.20;1.50;;;6.10;99.90;;;;;;6156501;23;20480;-93
2020/12/30 09:26:50;;;;;;;9.98;1.23;;;6.10;99.90;;;;;;6144690;23;20017;-92
2020/12/30 09:29:19;;;;;;;12.20;1.27;;;6.20;99.90;;;;;;6157713;23;20080;-91
2020/12/30 09:31:56;;;;;;;10.63;1.70;;;6.20;99.90;;;;;;6159790;23;20017;-91
2020/12/30 09:34:26;;;;;;;8.20;1.25;;;6.30;99.90;;;;;;6160115;23;20453;-92
2020/12/30 09:36:55;;;;;;;13.80;1.38;;;6.30;99.90;;;;;;6158951;23;20013;-92
2020/12/30 09:39:27;;;;;;;10.15;1.42;;;6.30;99.90;;;;;;6160677;23;20027;-92
2020/12/30 09:42:02;;;;;;;10.82;1.20;;;6.30;99.90;;;;;;6160872;23;20333;-92
2020/12/30 09:44:30;;;;;;;8.75;1.73;;;6.40;99.90;;;;;;6159981;23;20080;-92
2020/12/30 09:47:00;;;;;;;16.92;2.33;;;6.50;99.90;;;;;;6160793;23;20024;-92
2020/12/30 09:49:27;;;;;;;10.20;1.17;;;6.50;99.90;;;;;;6160656;23;20016;-92
2020/12/30 09:51:56;;;;;;;8.65;1.83;;;6.50;99.90;;;;;;6161292;23;20021;-92
2020/12/30 09:54:26;;;;;;;6.35;1.23;;;6.50;99.90;;;;;;6160992;23;20051;-91
2020/12/30 09:56:58;;;;;;;8.20;1.33;;;6.50;99.90;;;;;;6161306;23;20013;-92
2020/12/30 09:59:28;;;;;;;5.85;1.33;;;6.60;99.90;;;;;;6161355;23;20407;-92
2020/12/30 10:01:55;;;;;;;6.72;1.52;;;6.60;99.90;;;;;;6159041;23;20436;-91
2020/12/30 10:04:23;;;;;;;10.63;2.05;;;6.60;99.90;;;;;;6160671;23;20021;-91
2020/12/30 10:06:51;;;;;;;6.43;1.75;;;6.70;99.90;;;;;;6160553;23;20530;-91
2020/12/30 10:09:21;;;;;;;10.18;1.60;;;6.70;99.90;;;;;;6162768;23;20017;-91
2020/12/30 10:11:51;;;;;;;8.95;1.77;;;6.80;99.90;;;;;;6162964;23;20028;-91
2020/12/30 10:14:22;;;;;;;8.57;1.70;;;6.80;99.90;;;;;;6161969;23;20523;-91
2020/12/30 10:16:51;;;;;;;6.07;1.60;;;6.90;99.90;;;;;;6163266;23;20381;-91
2020/12/30 10:19:21;;;;;;;6.57;1.80;;;6.90;99.90;;;;;;6162305;23;20021;-92
2020/12/30 10:21:50;;;;;;;6.90;1.80;;;7.00;99.90;;;;;;6161024;23;20021;-96
2020/12/30 10:24:19;;;;;;;7.85;1.80;;;7.00;99.90;;;;;;6148619;23;20029;-94
2020/12/30 10:26:48;;;;;;;9.73;2.08;;;7.10;99.90;;;;;;6134475;23;20017;-92
2020/12/30 10:29:15;;;;;;;7.88;1.88;;;7.10;99.90;;;;;;6136133;23;20037;-94
2020/12/30 10:31:43;;;;;;;9.18;1.90;;;7.20;99.90;;;;;;6134142;23;20442;-95
2020/12/30 10:34:11;;;;;;;8.73;1.80;;;7.20;99.90;;;;;;6134353;23;21223;-95
2020/12/30 10:36:43;;;;;;;9.38;1.67;;;7.20;99.90;;;;;;6132517;23;20019;-95
2020/12/30 10:39:11;;;;;;;5.47;1.35;;;7.20;99.90;;;;;;6133575;23;20028;-94
2020/12/30 10:41:39;;;;;;;8.27;1.48;;;7.20;99.90;;;;;;6133296;23;20326;-94
2020/12/30 10:44:06;;;;;;;8.90;1.15;;;7.30;99.90;;;;;;6133913;23;20021;-95
2020/12/30 10:46:36;;;;;;;4.28;1.20;;;7.30;99.90;;;;;;6134235;23;20022;-94
2020/12/30 10:49:06;;;;;;;7.38;1.10;;;7.30;99.90;;;;;;6133454;23;20017;-94
2020/12/30 10:51:34;;;;;;;10.33;1.40;;;7.40;99.90;;;;;;6133184;23;20347;-94
2020/12/30 10:54:02;;;;;;;10.45;1.23;;;7.40;99.90;;;;;;6132771;23;20037;-94
2020/12/30 10:56:29;;;;;;;10.90;1.20;;;7.50;99.90;;;;;;6133196;23;20037;-94
2020/12/30 10:58:57;;;;;;;5.80;1.10;;;7.50;99.90;;;;;;6132942;23;20019;-93
2020/12/30 11:01:26;;;;;;;5.35;1.35;;;7.50;99.90;;;;;;6132734;23;20017;-95
2020/12/30 11:03:54;;;;;;;5.50;1.40;;;7.60;99.90;;;;;;6132652;23;20018;-95
2020/12/30 11:06:22;;;;;;;9.52;1.55;;;7.70;99.90;;;;;;6132313;23;20025;-95
2020/12/30 11:08:51;;;;;;;6.25;1.60;;;7.70;99.90;;;;;;6134373;23;20053;-94
2020/12/30 11:11:19;;;;;;;7.55;1.70;;;7.70;99.90;;;;;;6134473;23;20264;-95
2020/12/30 11:13:46;;;;;;;9.93;2.08;;;7.80;99.90;;;;;;6134540;23;20024;-95
2020/12/30 11:16:14;;;;;;;7.63;2.22;;;7.90;99.90;;;;;;6134440;23;20026;-95
2020/12/30 11:18:43;;;;;;;10.07;2.35;;;8.00;99.90;;;;;;6133718;23;20052;-96
2020/12/30 11:21:11;;;;;;;;;;;8.00;99.90;;;;;;6134213;23;20017;-95
2020/12/30 11:23:38;;;;;;;8.85;2.53;;;8.00;99.90;;;;;;6130973;23;19920;-95
2020/12/30 11:26:07;;;;;;;10.77;3.63;;;8.00;99.90;;;;;;6133813;23;20028;-94
2020/12/30 11:28:34;;;;;;;12.05;2.50;;;8.00;99.90;;;;;;6132548;23;20018;-95
2020/12/30 11:31:03;;;;;;;13.35;1.98;;;8.00;99.90;;;;;;6133070;23;20017;-95
2020/12/30 11:33:31;;;;;;;9.10;1.70;;;8.00;99.90;;;;;;6131932;23;20017;-95
2020/12/30 11:35:58;;;;;;;8.75;1.55;;;8.10;99.90;;;;;;6132109;23;20315;-95
2020/12/30 11:38:27;;;;;;;9.85;2.22;;;8.00;99.90;;;;;;6133081;23;20044;-94
2020/12/30 11:40:54;;;;;;;13.32;2.47;;;8.10;99.90;;;;;;6133234;23;20022;-94
2020/12/30 11:43:22;;;;;;;8.73;2.20;;;8.10;99.90;;;;;;6156841;23;20017;-94
2020/12/30 11:45:49;;;;;;;10.65;2.35;;;8.10;99.90;;;;;;6132314;23;20501;-95
2020/12/30 11:48:19;;;;;;;11.02;2.30;;;8.10;99.90;;;;;;6132393;23;20021;-95
2020/12/30 11:50:47;;;;;;;12.68;3.50;;;8.00;99.90;;;;;;6131735;23;20350;-95
2020/12/30 11:53:15;;;;;;;11.52;2.92;;;8.10;99.90;;;;;;6132086;23;20017;-95
2020/12/30 11:55:43;;;;;;;9.25;3.22;;;8.10;99.90;;;;;;6133055;23;20021;-93
2020/12/30 11:58:10;;;;;;;13.32;3.80;;;8.10;99.90;;;;;;6133208;23;20037;-89
2020/12/30 12:00:44;;;;;;;19.40;6.03;;;8.10;99.90;;;;;;6132445;23;20018;-93
2020/12/30 12:03:15;;;;;;;;;;;8.10;99.90;;;;;;6133642;23;20476;-92
2020/12/30 12:06:11;;;;;;;10.82;3.88;;;8.10;99.90;;;;;;6132268;23;19925;-96
2020/12/30 12:08:54;;;;;;;14.80;4.35;;;8.10;99.90;;;;;;6138358;23;20073;-95
2020/12/30 12:11:44;;;;;;;11.95;3.40;;;8.10;99.90;;;;;;6137427;23;20025;-96
2020/12/30 12:14:15;;;;;;;20.92;4.82;;;8.10;99.90;;;;;;6139361;23;20032;-94
2020/12/30 12:16:42;;;;;;;12.77;4.32;;;8.10;99.90;;;;;;6131804;23;20017;-93
2020/12/30 12:19:09;;;;;;;18.08;5.20;;;8.10;99.90;;;;;;6133395;23;20064;-93
2020/12/30 12:21:40;;;;;;;14.52;3.35;;;8.20;99.90;;;;;;6131011;23;20018;-89
2020/12/30 12:24:08;;;;;;;12.02;2.40;;;8.30;99.90;;;;;;6131227;23;20026;-92
2020/12/30 12:26:37;;;;;;;10.00;2.08;;;8.40;99.90;;;;;;6130995;23;20746;-92
2020/12/30 12:29:23;;;;;;;14.77;2.05;;;8.40;99.90;;;;;;6133026;23;20040;-91
2020/12/30 12:32:14;;;;;;;13.27;3.20;;;8.50;99.90;;;;;;6134423;23;20022;-94
2020/12/30 12:34:53;;;;;;;14.75;2.50;;;8.60;99.90;;;;;;6136792;23;20025;-96
2020/12/30 12:37:28;;;;;;;10.90;1.33;;;8.60;99.90;;;;;;6134867;23;20019;-96
2020/12/30 12:40:08;;;;;;;16.92;1.48;;;8.70;99.90;;;;;;6137675;23;20018;-96
2020/12/30 12:45:33;;;;;;;7.13;1.27;;;8.80;99.90;;;;;;6137781;23;20055;-94
2020/12/30 12:48:00;;;;;;;13.07;1.33;;;8.90;99.90;;;;;;6133074;23;20020;-92
2020/12/30 12:50:28;;;;;;;9.05;1.23;;;8.90;99.90;;;;;;6132778;23;20022;-93
2020/12/30 12:53:07;;;;;;;5.95;1.27;;;9.00;99.90;;;;;;6134749;23;20037;-95
2020/12/30 12:55:35;;;;;;;14.48;1.70;;;9.10;99.90;;;;;;6132492;23;20450;-93
2020/12/30 12:58:03;;;;;;;13.45;1.40;;;9.20;99.90;;;;;;6127834;23;20021;-93
2020/12/30 13:00:30;;;;;;;8.05;1.35;;;9.20;99.90;;;;;;6128012;23;20405;-93
2020/12/30 13:02:58;;;;;;;11.45;1.20;;;9.30;99.90;;;;;;6126909;23;20453;-92
2020/12/30 13:05:26;;;;;;;11.15;1.88;;;9.50;99.90;;;;;;6126129;23;20418;-94
2020/12/30 13:07:53;;;;;;;7.97;1.75;;;9.60;99.90;;;;;;6128873;23;20021;-94
2020/12/30 13:10:22;;;;;;;7.70;1.38;;;9.70;99.90;;;;;;6131294;23;20025;-92
2020/12/30 13:12:49;;;;;;;9.93;1.27;;;9.70;99.90;;;;;;6130138;23;20365;-92
2020/12/30 13:15:17;;;;;;;8.18;1.13;;;9.70;99.90;;;;;;6129947;23;20591;-93